createdAt,value
2023-05-12T00:00:55.837Z,11.02
2023-05-12T00:03:24.529Z,11.04
2023-05-12T00:05:52.250Z,11.03
2023-05-12T00:08:19.735Z,11.03
2023-05-12T00:10:47.672Z,11.01
2023-05-12T00:13:15.576Z,11.00
2023-05-12T00:15:43.098Z,11.05
2023-05-12T00:18:10.805Z,11.08
2023-05-12T00:20:38.426Z,11.09
2023-05-12T00:23:05.845Z,11.05
2023-05-12T00:25:34.110Z,11.10
2023-05-12T00:28:01.660Z,11.11
2023-05-12T00:30:29.209Z,11.10
2023-05-12T00:32:57.437Z,11.10
2023-05-12T00:35:24.970Z,11.10
2023-05-12T00:37:52.504Z,11.12
2023-05-12T00:40:20.612Z,11.16
2023-05-12T00:42:48.403Z,11.15
2023-05-12T00:45:15.922Z,11.18
2023-05-12T00:47:45.655Z,11.16
2023-05-12T00:50:13.526Z,11.13
2023-05-12T00:52:41.125Z,11.13
2023-05-12T00:55:09.489Z,11.18
2023-05-12T00:57:37.265Z,11.19
2023-05-12T01:00:07.493Z,11.14
2023-05-12T01:02:37.125Z,11.15
2023-05-12T01:05:05.781Z,11.10
2023-05-12T01:07:33.901Z,11.07
2023-05-12T01:10:01.848Z,11.08
2023-05-12T01:12:36.658Z,11.15
2023-05-12T01:15:05.007Z,11.12
2023-05-12T01:17:35.561Z,11.10
2023-05-12T01:20:06.257Z,11.11
2023-05-12T01:22:35.993Z,11.13
2023-05-12T01:25:08.253Z,11.10
2023-05-12T01:27:39.699Z,11.10
2023-05-12T01:30:09.782Z,11.11
2023-05-12T01:32:40.439Z,11.10
2023-05-12T01:35:08.808Z,11.10
2023-05-12T01:37:37.286Z,11.09
2023-05-12T01:40:05.800Z,11.09
2023-05-12T01:42:33.384Z,11.10
2023-05-12T01:45:01.289Z,11.12
2023-05-12T01:47:28.894Z,11.07
2023-05-12T01:49:57.253Z,11.07
2023-05-12T01:52:25.385Z,11.09
2023-05-12T01:54:52.975Z,11.14
2023-05-12T01:57:20.993Z,11.10
2023-05-12T01:59:49.234Z,11.13
2023-05-12T02:02:16.834Z,11.10
2023-05-12T02:04:44.968Z,11.08
2023-05-12T02:07:12.464Z,11.10
2023-05-12T02:09:39.996Z,11.09
2023-05-12T02:12:08.294Z,11.08
2023-05-12T02:14:35.861Z,11.08
2023-05-12T02:17:04.707Z,11.11
2023-05-12T02:19:32.625Z,11.15
2023-05-12T02:22:00.490Z,11.12
2023-05-12T02:24:28.040Z,11.09
2023-05-12T02:26:56.024Z,11.06
2023-05-12T02:29:23.552Z,11.11
2023-05-12T02:31:51.078Z,11.06
2023-05-12T02:34:19.490Z,11.03
2023-05-12T02:36:46.980Z,10.93
2023-05-12T02:39:14.501Z,10.89
2023-05-12T02:41:42.339Z,10.84
2023-05-12T02:44:09.905Z,10.83
2023-05-12T02:46:37.519Z,10.85
2023-05-12T02:49:05.436Z,10.87
2023-05-12T02:51:32.978Z,10.91
2023-05-12T02:54:00.468Z,10.97
2023-05-12T02:56:29.739Z,10.99
2023-05-12T02:58:57.937Z,10.91
2023-05-12T03:01:25.786Z,10.93
2023-05-12T03:03:53.658Z,10.97
2023-05-12T03:06:21.352Z,10.97
2023-05-12T03:08:48.873Z,11.01
2023-05-12T03:11:16.723Z,11.03
2023-05-12T03:13:44.281Z,11.04
2023-05-12T03:16:12.560Z,11.00
2023-05-12T03:18:40.446Z,10.97
2023-05-12T03:21:08.075Z,11.01
2023-05-12T03:23:37.457Z,11.00
2023-05-12T03:26:05.233Z,10.99
2023-05-12T03:28:32.758Z,10.97
2023-05-12T03:31:00.331Z,10.96
2023-05-12T03:33:29.548Z,10.99
2023-05-12T03:35:57.059Z,10.99
2023-05-12T03:38:24.634Z,11.00
2023-05-12T03:40:52.919Z,10.98
2023-05-12T03:43:21.290Z,10.99
2023-05-12T03:45:49.081Z,10.95
2023-05-12T03:48:16.887Z,10.94
2023-05-12T03:50:44.433Z,10.96
2023-05-12T03:53:11.943Z,10.97
2023-05-12T03:55:39.741Z,10.97
2023-05-12T03:58:08.100Z,10.97
2023-05-12T04:00:35.673Z,10.96
2023-05-12T04:03:03.560Z,10.94
2023-05-12T04:05:31.265Z,10.95
2023-05-12T04:07:59.748Z,10.89
2023-05-12T04:10:27.523Z,10.94
2023-05-12T04:12:54.981Z,10.86
2023-05-12T04:15:22.954Z,10.91
2023-05-12T04:17:51.198Z,10.94
2023-05-12T04:20:19.184Z,10.93
2023-05-12T04:22:47.709Z,10.93
2023-05-12T04:25:15.788Z,10.94
2023-05-12T04:27:43.322Z,10.94
2023-05-12T04:30:11.754Z,10.84
2023-05-12T04:32:40.035Z,10.86
2023-05-12T04:35:08.664Z,10.91
2023-05-12T04:37:36.266Z,10.90
2023-05-12T04:40:05.188Z,10.86
2023-05-12T04:42:32.809Z,10.89
2023-05-12T04:45:00.600Z,10.84
2023-05-12T04:47:29.390Z,10.88
2023-05-12T04:49:57.357Z,10.89
2023-05-12T04:52:25.070Z,10.91
2023-05-12T04:54:53.484Z,10.92
2023-05-12T04:57:21.703Z,10.92
2023-05-12T04:59:49.593Z,10.95
2023-05-12T05:02:17.626Z,10.98
2023-05-12T05:04:45.680Z,10.98
2023-05-12T05:07:13.320Z,10.97
2023-05-12T05:09:41.157Z,10.97
2023-05-12T05:12:09.157Z,10.99
2023-05-12T05:14:36.681Z,11.04
2023-05-12T05:17:04.760Z,11.05
2023-05-12T05:19:44.798Z,11.04
2023-05-12T05:22:20.138Z,11.00
2023-05-12T05:24:47.678Z,11.04
2023-05-12T05:27:15.313Z,11.07
2023-05-12T05:29:43.489Z,11.14
2023-05-12T05:32:11.015Z,11.18
2023-05-12T05:34:39.526Z,11.24
2023-05-12T05:37:07.396Z,11.27
2023-05-12T05:39:34.936Z,11.33
2023-05-12T05:42:02.674Z,11.33
2023-05-12T05:44:30.768Z,11.35
2023-05-12T05:46:58.630Z,11.37
2023-05-12T05:49:26.454Z,11.42
2023-05-12T05:51:55.477Z,11.52
2023-05-12T05:54:26.124Z,11.44
2023-05-12T05:56:53.977Z,11.44
2023-05-12T05:59:21.561Z,11.50
2023-05-12T06:01:49.119Z,11.53
2023-05-12T06:04:17.025Z,11.54
2023-05-12T06:06:44.589Z,11.61
2023-05-12T06:09:12.563Z,11.67
2023-05-12T06:11:40.478Z,11.71
2023-05-12T06:14:07.962Z,11.72
2023-05-12T06:16:35.527Z,11.78
2023-05-12T06:19:06.836Z,11.80
2023-05-12T06:21:34.485Z,11.79
2023-05-12T06:24:02.145Z,11.75
2023-05-12T06:26:30.062Z,11.71
2023-05-12T06:28:57.533Z,11.70
2023-05-12T06:31:25.164Z,11.63
2023-05-12T06:33:53.079Z,11.61
2023-05-12T06:36:20.670Z,11.62
2023-05-12T06:38:48.188Z,11.60
2023-05-12T06:41:16.057Z,11.66
2023-05-12T06:43:43.645Z,11.71
2023-05-12T06:46:11.125Z,11.66
2023-05-12T06:48:38.933Z,11.56
2023-05-12T06:51:06.604Z,11.62
2023-05-12T06:53:37.620Z,11.68
2023-05-12T06:56:05.864Z,11.68
2023-05-12T06:58:33.493Z,11.72
2023-05-12T07:01:01.078Z,11.72
2023-05-12T07:03:32.410Z,11.72
2023-05-12T07:06:00.231Z,11.71
2023-05-12T07:08:27.829Z,11.63
2023-05-12T07:10:55.597Z,11.73
2023-05-12T07:13:23.103Z,11.77
2023-05-12T07:15:50.687Z,11.87
2023-05-12T07:18:18.484Z,11.96
2023-05-12T07:20:46.725Z,11.96
2023-05-12T07:23:14.344Z,12.01
2023-05-12T07:25:42.217Z,12.04
2023-05-12T07:28:09.783Z,12.07
2023-05-12T07:30:37.701Z,12.15
2023-05-12T07:33:06.685Z,12.22
2023-05-12T07:35:34.380Z,12.22
2023-05-12T07:38:03.350Z,12.29
2023-05-12T07:40:31.123Z,12.23
2023-05-12T07:42:58.724Z,12.28
2023-05-12T07:45:26.289Z,12.39
2023-05-12T07:47:54.139Z,12.46
2023-05-12T07:50:21.906Z,12.51
2023-05-12T07:52:50.723Z,12.52
2023-05-12T07:55:20.125Z,12.52
2023-05-12T07:57:49.019Z,12.65
2023-05-12T08:00:16.690Z,12.72
2023-05-12T08:02:44.601Z,12.76
2023-05-12T08:05:12.110Z,12.89
2023-05-12T08:07:41.233Z,13.06
2023-05-12T08:10:10.404Z,13.04
2023-05-12T08:12:37.935Z,13.08
2023-05-12T08:15:05.844Z,12.96
2023-05-12T08:17:33.957Z,12.89
2023-05-12T08:20:04.424Z,13.05
2023-05-12T08:22:32.394Z,13.04
2023-05-12T08:25:00.347Z,12.98
2023-05-12T08:27:29.519Z,12.96
2023-05-12T08:29:57.096Z,12.98
2023-05-12T08:32:25.000Z,12.92
2023-05-12T08:34:52.689Z,12.88
2023-05-12T08:37:20.984Z,12.76
2023-05-12T08:39:49.138Z,12.69
2023-05-12T08:42:25.687Z,12.64
2023-05-12T08:44:55.724Z,12.60
2023-05-12T08:47:25.841Z,12.48
2023-05-12T08:50:04.120Z,12.46
2023-05-12T08:52:35.770Z,12.44
2023-05-12T08:55:05.089Z,12.57
2023-05-12T08:57:33.248Z,12.59
2023-05-12T09:00:02.935Z,12.62
2023-05-12T09:02:44.761Z,12.67
2023-05-12T09:05:16.182Z,12.74
2023-05-12T09:07:45.052Z,12.81
2023-05-12T09:10:32.762Z,12.84
2023-05-12T09:13:23.911Z,12.86
2023-05-12T09:15:53.991Z,12.88
2023-05-12T09:18:22.312Z,12.84
2023-05-12T09:20:49.802Z,12.82
2023-05-12T09:23:22.119Z,12.82
2023-05-12T09:26:02.479Z,12.78
2023-05-12T09:28:37.511Z,12.85
2023-05-12T09:31:25.178Z,12.77
2023-05-12T09:33:52.912Z,12.78
2023-05-12T09:36:22.430Z,12.79
2023-05-12T09:39:07.106Z,12.75
2023-05-12T09:41:39.673Z,12.76
2023-05-12T09:44:08.712Z,12.78
2023-05-12T09:46:39.765Z,12.82
2023-05-12T09:49:07.964Z,12.88
2023-05-12T09:51:35.750Z,12.86
2023-05-12T09:54:05.746Z,12.82
2023-05-12T09:56:37.778Z,12.88
2023-05-12T09:59:05.835Z,12.92
2023-05-12T10:01:34.758Z,12.83
2023-05-12T10:04:07.812Z,12.86
2023-05-12T10:06:41.631Z,12.81
2023-05-12T10:09:19.717Z,12.82
2023-05-12T10:11:50.621Z,12.82
2023-05-12T10:14:20.080Z,12.86
2023-05-12T10:16:49.655Z,12.94
2023-05-12T10:19:18.856Z,12.94
2023-05-12T10:21:47.079Z,13.10
2023-05-12T10:24:17.896Z,13.21
2023-05-12T10:26:45.484Z,13.33
2023-05-12T10:29:14.232Z,13.49
2023-05-12T10:31:45.345Z,13.55
2023-05-12T10:34:21.681Z,13.65
2023-05-12T10:36:54.124Z,13.80
2023-05-12T10:39:32.954Z,13.93
2023-05-12T10:42:02.955Z,13.97
2023-05-12T10:44:30.815Z,14.12
2023-05-12T10:47:02.044Z,14.27
2023-05-12T10:49:40.101Z,14.36
2023-05-12T10:52:08.131Z,14.39
2023-05-12T10:54:45.228Z,14.48
2023-05-12T10:57:21.393Z,14.78
2023-05-12T10:59:57.773Z,14.95
2023-05-12T11:02:34.440Z,15.11
2023-05-12T11:05:12.893Z,15.00
2023-05-12T11:07:48.058Z,15.08
2023-05-12T11:10:17.222Z,15.10
2023-05-12T11:12:45.868Z,15.09
2023-05-12T11:15:15.508Z,15.15
2023-05-12T11:17:46.516Z,15.17
2023-05-12T11:20:24.291Z,15.25
2023-05-12T11:22:52.933Z,15.25
2023-05-12T11:25:20.882Z,15.28
2023-05-12T11:27:51.520Z,15.26
2023-05-12T11:30:19.963Z,15.12
2023-05-12T11:32:47.835Z,15.10
2023-05-12T11:35:17.721Z,15.05
2023-05-12T11:37:46.535Z,15.00
2023-05-12T11:40:22.660Z,15.00
2023-05-12T11:42:53.067Z,15.02
2023-05-12T11:45:28.554Z,15.25
2023-05-12T11:48:33.407Z,15.37
2023-05-12T11:51:01.454Z,15.35
2023-05-12T11:53:29.362Z,15.45
2023-05-12T11:55:57.179Z,15.39
2023-05-12T11:58:27.213Z,15.36
2023-05-12T12:00:55.913Z,15.38
2023-05-12T12:03:24.985Z,15.47
2023-05-12T12:06:03.394Z,15.36
2023-05-12T12:08:31.934Z,15.38
2023-05-12T12:11:01.990Z,15.58
2023-05-12T12:13:31.289Z,15.67
2023-05-12T12:15:58.954Z,15.75
2023-05-12T12:18:27.040Z,15.57
2023-05-12T12:20:54.883Z,15.48
2023-05-12T12:23:22.340Z,15.56
2023-05-12T12:25:49.798Z,15.56
2023-05-12T12:28:17.604Z,15.59
2023-05-12T12:30:45.103Z,16.00
2023-05-12T12:33:13.132Z,16.16
2023-05-12T12:35:41.578Z,16.08
2023-05-12T12:38:09.085Z,16.05
2023-05-12T12:40:36.599Z,16.18
2023-05-12T12:43:04.596Z,16.17
2023-05-12T12:45:32.176Z,15.95
2023-05-12T12:47:59.817Z,16.07
2023-05-12T12:50:27.823Z,16.22
2023-05-12T12:52:55.321Z,15.90
2023-05-12T12:55:23.208Z,15.70
2023-05-12T12:57:51.219Z,15.52
2023-05-12T13:00:19.835Z,15.60
2023-05-12T13:02:47.517Z,15.57
2023-05-12T13:05:16.360Z,15.57
2023-05-12T13:07:43.834Z,15.43
2023-05-12T13:10:12.224Z,15.48
2023-05-12T13:12:40.086Z,15.43
2023-05-12T13:15:08.472Z,15.59
2023-05-12T13:17:36.320Z,15.45
2023-05-12T13:20:04.779Z,15.53
2023-05-12T13:22:32.370Z,15.59
2023-05-12T13:24:59.969Z,15.66
2023-05-12T13:27:27.860Z,15.95
2023-05-12T13:29:55.361Z,16.29
2023-05-12T13:32:22.960Z,16.44
2023-05-12T13:34:50.813Z,16.31
2023-05-12T13:37:18.276Z,16.18
2023-05-12T13:39:45.806Z,15.88
2023-05-12T13:42:13.860Z,15.74
2023-05-12T13:44:41.444Z,15.65
2023-05-12T13:47:10.292Z,15.62
2023-05-12T13:49:38.104Z,15.94
2023-05-12T13:52:05.972Z,15.86
2023-05-12T13:54:33.966Z,15.83
2023-05-12T13:57:04.026Z,15.57
2023-05-12T13:59:32.043Z,15.38
2023-05-12T14:01:59.720Z,15.51
2023-05-12T14:04:28.036Z,15.71
2023-05-12T14:06:55.639Z,15.49
2023-05-12T14:09:23.319Z,15.49
2023-05-12T14:11:51.096Z,15.44
2023-05-12T14:14:18.576Z,15.43
2023-05-12T14:16:46.180Z,15.49
2023-05-12T14:19:14.138Z,15.69
2023-05-12T14:21:42.093Z,15.86
2023-05-12T14:24:10.118Z,15.72
2023-05-12T14:26:37.971Z,15.65
2023-05-12T14:29:06.922Z,15.65
2023-05-12T14:31:35.855Z,15.50
2023-05-12T14:34:04.520Z,15.40
2023-05-12T14:36:32.302Z,15.01
2023-05-12T14:38:59.826Z,14.75
2023-05-12T14:41:27.624Z,14.55
2023-05-12T14:43:55.080Z,14.70
2023-05-12T14:46:22.809Z,14.64
2023-05-12T14:48:50.736Z,14.75
2023-05-12T14:51:18.312Z,14.73
2023-05-12T14:53:46.125Z,14.68
2023-05-12T14:56:14.214Z,14.80
2023-05-12T14:58:41.768Z,14.87
2023-05-12T15:01:09.688Z,14.86
2023-05-12T15:03:37.862Z,14.91
2023-05-12T15:06:08.056Z,14.90
2023-05-12T15:08:36.107Z,14.90
2023-05-12T15:11:04.985Z,14.80
2023-05-12T15:13:32.581Z,14.81
2023-05-12T15:16:00.156Z,14.80
2023-05-12T15:18:28.091Z,14.82
2023-05-12T15:20:55.617Z,14.90
2023-05-12T15:23:23.178Z,14.89
2023-05-12T15:25:51.353Z,14.79
2023-05-12T15:28:18.904Z,14.80
2023-05-12T15:30:57.276Z,14.79
2023-05-12T15:33:25.398Z,14.82
2023-05-12T15:35:52.965Z,14.82
2023-05-12T15:38:20.596Z,14.74
2023-05-12T15:40:48.497Z,14.78
2023-05-12T15:43:15.983Z,14.68
2023-05-12T15:45:44.279Z,14.68
2023-05-12T15:48:12.165Z,14.68
2023-05-12T15:50:39.767Z,14.63
2023-05-12T15:53:07.384Z,14.59
2023-05-12T15:55:35.303Z,14.60
2023-05-12T15:58:04.438Z,14.58
2023-05-12T16:00:32.050Z,14.63
2023-05-12T16:03:01.706Z,14.61
2023-05-12T16:05:29.583Z,14.58
2023-05-12T16:07:57.520Z,14.50
2023-05-12T16:10:25.337Z,14.45
2023-05-12T16:12:52.842Z,14.44
2023-05-12T16:15:20.557Z,14.40
2023-05-12T16:17:48.620Z,14.41
2023-05-12T16:20:16.440Z,14.45
2023-05-12T16:22:44.099Z,14.42
2023-05-12T16:25:11.934Z,14.37
2023-05-12T16:27:39.656Z,14.34
2023-05-12T16:30:07.938Z,14.28
2023-05-12T16:32:35.814Z,14.29
2023-05-12T16:35:03.731Z,14.19
2023-05-12T16:37:31.737Z,14.24
2023-05-12T16:39:59.835Z,14.20
2023-05-12T16:42:27.513Z,14.17
2023-05-12T16:44:55.112Z,14.18
2023-05-12T16:47:23.154Z,14.20
2023-05-12T16:49:53.878Z,14.19
2023-05-12T16:52:21.719Z,14.16
2023-05-12T16:54:49.562Z,14.14
2023-05-12T16:57:17.136Z,14.10
2023-05-12T16:59:44.989Z,14.04
2023-05-12T17:02:13.216Z,14.00
2023-05-12T17:04:40.846Z,13.95
2023-05-12T17:07:09.629Z,13.90
2023-05-12T17:09:37.406Z,13.88
2023-05-12T17:12:06.872Z,13.84
2023-05-12T17:14:38.040Z,13.79
2023-05-12T17:17:05.948Z,13.83
2023-05-12T17:19:34.662Z,13.79
2023-05-12T17:22:02.195Z,13.72
2023-05-12T17:24:30.464Z,13.71
2023-05-12T17:26:58.509Z,13.66
2023-05-12T17:29:26.165Z,13.68
2023-05-12T17:31:54.060Z,13.64
2023-05-12T17:34:21.622Z,13.59
2023-05-12T17:36:49.188Z,13.55
2023-05-12T17:39:17.263Z,13.51
2023-05-12T17:41:44.815Z,13.46
2023-05-12T17:44:12.578Z,13.42
2023-05-12T17:46:40.634Z,13.36
2023-05-12T17:49:08.273Z,13.33
2023-05-12T17:51:35.787Z,13.33
2023-05-12T17:54:04.140Z,13.30
2023-05-12T17:56:31.726Z,13.26
2023-05-12T17:58:59.240Z,13.23
2023-05-12T18:01:27.804Z,13.17
2023-05-12T18:03:55.674Z,13.17
2023-05-12T18:06:24.353Z,13.13
2023-05-12T18:08:52.331Z,13.12
2023-05-12T18:11:20.221Z,13.10
2023-05-12T18:13:48.122Z,13.03
2023-05-12T18:16:27.610Z,13.01
2023-05-12T18:18:57.136Z,13.01
2023-05-12T18:21:25.195Z,12.97
2023-05-12T18:23:52.780Z,12.90
2023-05-12T18:26:20.927Z,12.90
2023-05-12T18:28:48.773Z,12.88
2023-05-12T18:31:19.646Z,12.71
2023-05-12T18:33:48.997Z,12.62
2023-05-12T18:36:17.159Z,12.60
2023-05-12T18:38:45.151Z,12.51
2023-05-12T18:41:12.960Z,12.43
2023-05-12T18:43:40.481Z,12.45
2023-05-12T18:46:08.073Z,12.45
2023-05-12T18:48:35.938Z,12.42
2023-05-12T18:51:03.584Z,12.36
2023-05-12T18:53:31.155Z,12.25
2023-05-12T18:55:58.944Z,12.21
2023-05-12T18:58:26.431Z,12.17
2023-05-12T19:00:54.195Z,12.09
2023-05-12T19:03:21.994Z,12.08
2023-05-12T19:05:49.575Z,12.07
2023-05-12T19:08:19.091Z,12.00
2023-05-12T19:10:48.037Z,12.02
2023-05-12T19:13:15.707Z,12.02
2023-05-12T19:15:43.258Z,11.98
2023-05-12T19:18:11.394Z,12.01
2023-05-12T19:20:39.011Z,11.97
2023-05-12T19:23:06.706Z,11.98
2023-05-12T19:25:35.455Z,12.01
2023-05-12T19:28:03.121Z,11.99
2023-05-12T19:30:31.083Z,11.97
2023-05-12T19:32:58.914Z,11.93
2023-05-12T19:35:26.769Z,11.93
2023-05-12T19:37:54.366Z,11.95
2023-05-12T19:40:22.138Z,11.90
2023-05-12T19:42:50.423Z,11.88
2023-05-12T19:45:18.049Z,11.88
2023-05-12T19:47:46.071Z,11.90
2023-05-12T19:50:13.648Z,11.85
2023-05-12T19:52:41.311Z,11.87
2023-05-12T19:55:09.379Z,11.88
2023-05-12T19:57:37.581Z,11.85
2023-05-12T20:00:05.898Z,11.81
2023-05-12T20:02:40.303Z,11.78
2023-05-12T20:05:08.637Z,11.77
2023-05-12T20:07:36.169Z,11.72
2023-05-12T20:10:04.187Z,11.69
2023-05-12T20:12:32.028Z,11.67
2023-05-12T20:14:59.550Z,11.74
2023-05-12T20:17:27.074Z,11.72
2023-05-12T20:19:55.288Z,11.71
2023-05-12T20:22:22.808Z,11.70
2023-05-12T20:24:51.365Z,11.73
2023-05-12T20:27:19.172Z,11.82
2023-05-12T20:29:46.993Z,11.82
2023-05-12T20:32:14.633Z,11.82
2023-05-12T20:34:42.854Z,11.88
2023-05-12T20:37:10.332Z,11.88
2023-05-12T20:39:37.847Z,11.90
2023-05-12T20:42:06.128Z,11.89
2023-05-12T20:44:33.649Z,11.89
2023-05-12T20:47:01.795Z,11.85
2023-05-12T20:49:29.757Z,11.86
2023-05-12T20:51:57.377Z,11.76
2023-05-12T20:54:24.863Z,11.71
2023-05-12T20:56:52.726Z,11.64
2023-05-12T20:59:20.277Z,11.62
2023-05-12T21:01:47.866Z,11.57
2023-05-12T21:04:15.887Z,11.59
2023-05-12T21:06:43.482Z,11.55
2023-05-12T21:09:11.123Z,11.50
2023-05-12T21:11:38.947Z,11.55
2023-05-12T21:14:06.412Z,11.58
2023-05-12T21:16:33.924Z,11.52
2023-05-12T21:19:01.807Z,11.49
2023-05-12T21:21:29.416Z,11.52
2023-05-12T21:23:56.899Z,11.53
2023-05-12T21:26:26.786Z,11.51
2023-05-12T21:28:54.370Z,11.54
2023-05-12T21:31:21.855Z,11.53
2023-05-12T21:33:49.728Z,11.51
2023-05-12T21:36:17.240Z,11.46
2023-05-12T21:38:44.702Z,11.39
2023-05-12T21:41:12.487Z,11.29
2023-05-12T21:43:39.994Z,11.32
2023-05-12T21:46:07.555Z,11.36
2023-05-12T21:48:35.373Z,11.41
2023-05-12T21:51:03.520Z,11.46
2023-05-12T21:53:31.200Z,11.48
2023-05-12T21:55:59.009Z,11.43
2023-05-12T21:58:26.521Z,11.35
2023-05-12T22:00:54.067Z,11.38
2023-05-12T22:03:23.003Z,11.43
2023-05-12T22:05:50.600Z,11.51
2023-05-12T22:08:18.804Z,11.47
2023-05-12T22:10:46.983Z,11.49
2023-05-12T22:13:15.002Z,11.45
2023-05-12T22:15:42.691Z,11.47
2023-05-12T22:18:10.951Z,11.47
2023-05-12T22:20:38.636Z,11.50
2023-05-12T22:23:06.226Z,11.49
2023-05-12T22:25:34.014Z,11.48
2023-05-12T22:28:01.593Z,11.51
2023-05-12T22:30:29.106Z,11.51
2023-05-12T22:32:57.200Z,11.49
2023-05-12T22:35:24.697Z,11.44
2023-05-12T22:37:52.282Z,11.43
2023-05-12T22:40:23.092Z,11.26
2023-05-12T22:42:50.874Z,11.29
2023-05-12T22:45:18.563Z,11.17
2023-05-12T22:47:46.534Z,11.21
2023-05-12T22:50:14.175Z,11.06
2023-05-12T22:52:41.987Z,11.09
2023-05-12T22:55:10.461Z,11.17
2023-05-12T22:57:40.814Z,11.20
2023-05-12T23:00:08.838Z,11.13
2023-05-12T23:02:36.686Z,11.20
2023-05-12T23:05:04.476Z,11.13
2023-05-12T23:07:31.939Z,11.09
2023-05-12T23:09:59.692Z,11.14
2023-05-12T23:12:27.474Z,11.09
2023-05-12T23:14:55.038Z,11.10
2023-05-12T23:17:22.877Z,11.07
2023-05-12T23:19:52.254Z,11.06
2023-05-12T23:22:19.861Z,11.04
2023-05-12T23:24:47.732Z,11.02
2023-05-12T23:27:15.349Z,11.03
2023-05-12T23:29:42.840Z,11.06
2023-05-12T23:32:10.799Z,11.07
2023-05-12T23:34:40.432Z,11.10
2023-05-12T23:37:07.947Z,11.07
2023-05-12T23:39:36.018Z,11.06
2023-05-12T23:42:03.944Z,11.07
2023-05-12T23:44:31.386Z,11.07
2023-05-12T23:46:59.188Z,11.00
2023-05-12T23:49:27.446Z,10.99
2023-05-12T23:51:55.022Z,10.99
2023-05-12T23:54:22.905Z,11.00
2023-05-12T23:56:50.524Z,11.00
2023-05-12T23:59:18.008Z,11.05
